• Join FlightAware (Why Join?)
  • Login
  • US Flag 
05:47PM EDT


 

Airport Tracker/Info


-or-


 

Live Flight TrackerFlight Track Log ✈ KAP550 ✈ 14-May-2013 ✈ KMSS - KALB

Flight Track Log - Related Links

Times and Time Zones

All times are in EDT time to prevent confusion due to time zone crossing. See the KAP550 flight status page for this flight to view local times or setup timezone preferences in your user account.

Time Position Orientation Groundspeed Altitude Reporting Facility
EDT Latitude Longitude Course Direction KTS MPH feet Rate Location/Type
05:12PM 44.6594 -74.7281 160° South 150 173 10,500  Level Boston Center
05:13PM 44.6142 -74.7089 163° South 160 184 11,700 540 Climbing Boston Center
05:14PM 44.5583 -74.6806 160° South 184 212 11,600 -60 Descending Boston Center
05:15PM 44.5006 -74.6522 161° South 210 242 11,600 -60 Level Boston Center
05:16PM 44.4469 -74.6239 159° South 215 247 11,500 -60 Descending Boston Center
05:17PM 44.7489 -74.7495 160° South  Level FlightAware Approximate
05:17PM 44.3911 -74.5958 160° South 215 247 11,500  Level Boston Center
05:18PM 44.3394 -74.5706 161° South 210 242 11,600  Climbing Boston Center
05:19PM 44.2839 -74.5425 160° South 205 236 11,600  Level Boston Center
05:20PM 44.2322 -74.5175 161° South 205 236 11,600  Level Boston Center
05:21PM 44.1783 -74.4897 160° South 205 236 11,600  Level Boston Center
05:22PM 44.1247 -74.4647 161° South 205 236 11,600  Level Boston Center
05:23PM 44.0711 -74.4397 161° South 205 236 11,600  Level Boston Center
05:24PM 44.0194 -74.4147 161° South 205 236 11,600  Level Boston Center
05:25PM 43.9636 -74.3869 160° South 205 236 11,600  Level Boston Center
05:26PM 43.9097 -74.3622 162° South 205 236 11,600  Level Boston Center
05:27PM 43.8561 -74.3347 160° South 205 236 11,600 -60 Level Boston Center
05:28PM 43.8003 -74.3097 162° South 210 242 11,500  Descending Boston Center
05:29PM 43.7486 -74.2822 159° South 210 242 11,600  Climbing Boston Center
05:30PM 43.6947 -74.2550 160° South 210 242 11,600 -60 Level Boston Center
05:31PM 43.6369 -74.2272 161° South 210 242 11,500 -60 Descending Boston Center
05:32PM 43.5831 -74.2028 162° South 210 242 11,500  Level Boston Center
05:33PM 43.5292 -74.1756 160° South 210 242 11,500  Level Boston Center
05:33PM 43.5106 -74.1692 166° South 210 242 11,500 -240 Level Boston Center
05:34PM 43.4733 -74.1511 161° South 210 242 11,300 -780 Descending Boston Center
05:35PM 43.4194 -74.1322 166° South 230 265 10,400 -960 Descending Boston Center
05:36PM 43.3594 -74.1136 167° South 233 268 9,600 -840 Descending Boston Center
05:37PM 43.3014 -74.0919 165° South 215 247 8,800 -660 Descending Boston Center
05:38PM 43.2389 -74.0731 168° South 206 237 8,300 -540 Descending Boston Center
05:39PM 43.1850 -74.0517 164° South 201 231 7,800 -600 Descending Boston Center
05:40PM 43.1311 -74.0361 168° South 205 236 7,200 -720 Descending Boston Center
05:41PM 43.0772 -74.0178 166° South 207 238 6,400 -720 Descending Boston Center
05:42PM 43.0211 -73.9964 164° South 204 235 5,800 -720 Descending Boston Center
05:43PM 42.9653 -73.9694 161° South 205 236 5,000 -840 Descending Boston Center
05:44PM 42.9136 -73.9425 159° South 206 237 4,100 -900 Descending Boston Center
05:45PM 42.8578 -73.9131 159° South 203 234 3,300 -720 Descending Boston Center
05:46PM 42.8058 -73.8861 159° South 197 227 2,700 -720 Descending Boston Center
05:47PM 42.7542 -73.8625 161° South 196 226 1,900 4,320 Descending Boston Center
05:48PM 42.7022 -73.8414 163° South 206 237 11,500 9,600 Climbing Boston Center
05:50PM 42.7333 -73.8000 170° South  Level FlightAware Approximate
05:57PM 42.7491 -73.8020 170° South  Level Estimated
05:58PM 42.7491 -73.8020 170° South  Level Estimated
05:59PM 42.7491 -73.8020 170° South  Level Estimated
06:00PM 42.7491 -73.8020 170° South  Level Estimated